sensor_id;sensor_type;location;lat;lon;timestamp;P1;durP1;ratioP1;P2;durP2;ratioP2
35578;SDS011;21687;48.900;9.188;2024-02-16T00:01:38;4.87;;;4.10;;
35578;SDS011;21687;48.900;9.188;2024-02-16T00:04:05;3.90;;;3.30;;
35578;SDS011;21687;48.900;9.188;2024-02-16T00:06:32;5.90;;;4.20;;
35578;SDS011;21687;48.900;9.188;2024-02-16T00:08:59;5.43;;;4.13;;
35578;SDS011;21687;48.900;9.188;2024-02-16T00:11:26;5.23;;;4.13;;
35578;SDS011;21687;48.900;9.188;2024-02-16T00:13:53;5.93;;;4.17;;
35578;SDS011;21687;48.900;9.188;2024-02-16T00:16:20;6.07;;;3.90;;
35578;SDS011;21687;48.900;9.188;2024-02-16T00:18:46;4.50;;;3.67;;
35578;SDS011;21687;48.900;9.188;2024-02-16T00:21:12;6.70;;;5.07;;
35578;SDS011;21687;48.900;9.188;2024-02-16T00:23:39;7.20;;;4.93;;
35578;SDS011;21687;48.900;9.188;2024-02-16T00:26:05;7.40;;;4.43;;
35578;SDS011;21687;48.900;9.188;2024-02-16T00:28:32;5.80;;;4.87;;
35578;SDS011;21687;48.900;9.188;2024-02-16T00:30:58;7.17;;;4.80;;
35578;SDS011;21687;48.900;9.188;2024-02-16T00:33:25;7.97;;;5.30;;
35578;SDS011;21687;48.900;9.188;2024-02-16T00:35:53;8.17;;;5.27;;
35578;SDS011;21687;48.900;9.188;2024-02-16T00:38:19;6.03;;;4.60;;
35578;SDS011;21687;48.900;9.188;2024-02-16T00:40:45;6.20;;;4.60;;
35578;SDS011;21687;48.900;9.188;2024-02-16T00:43:12;7.70;;;4.53;;
35578;SDS011;21687;48.900;9.188;2024-02-16T00:45:39;9.57;;;4.50;;
35578;SDS011;21687;48.900;9.188;2024-02-16T00:48:09;7.17;;;4.90;;
35578;SDS011;21687;48.900;9.188;2024-02-16T00:50:36;6.60;;;4.57;;
35578;SDS011;21687;48.900;9.188;2024-02-16T00:53:02;6.10;;;4.83;;
35578;SDS011;21687;48.900;9.188;2024-02-16T00:55:29;6.37;;;4.57;;
35578;SDS011;21687;48.900;9.188;2024-02-16T00:57:55;4.77;;;4.10;;
35578;SDS011;21687;48.900;9.188;2024-02-16T01:00:22;5.27;;;4.20;;
35578;SDS011;21687;48.900;9.188;2024-02-16T01:02:49;9.93;;;4.73;;
35578;SDS011;21687;48.900;9.188;2024-02-16T01:05:16;6.43;;;4.33;;
35578;SDS011;21687;48.900;9.188;2024-02-16T01:07:43;7.97;;;4.23;;
35578;SDS011;21687;48.900;9.188;2024-02-16T01:10:10;7.73;;;4.10;;
35578;SDS011;21687;48.900;9.188;2024-02-16T01:12:37;4.87;;;4.30;;
35578;SDS011;21687;48.900;9.188;2024-02-16T01:15:04;5.27;;;4.60;;
35578;SDS011;21687;48.900;9.188;2024-02-16T01:17:31;5.70;;;4.53;;
35578;SDS011;21687;48.900;9.188;2024-02-16T01:19:58;7.30;;;4.93;;
35578;SDS011;21687;48.900;9.188;2024-02-16T01:22:25;7.20;;;5.07;;
35578;SDS011;21687;48.900;9.188;2024-02-16T01:24:54;7.00;;;5.23;;
35578;SDS011;21687;48.900;9.188;2024-02-16T01:27:20;7.27;;;4.87;;
35578;SDS011;21687;48.900;9.188;2024-02-16T01:29:46;7.10;;;4.70;;
35578;SDS011;21687;48.900;9.188;2024-02-16T01:32:13;7.97;;;4.90;;
35578;SDS011;21687;48.900;9.188;2024-02-16T01:34:39;6.53;;;4.70;;
35578;SDS011;21687;48.900;9.188;2024-02-16T01:37:06;6.87;;;4.77;;
35578;SDS011;21687;48.900;9.188;2024-02-16T01:39:32;8.50;;;5.23;;
35578;SDS011;21687;48.900;9.188;2024-02-16T01:41:59;13.90;;;5.40;;
35578;SDS011;21687;48.900;9.188;2024-02-16T01:44:25;6.07;;;5.00;;
35578;SDS011;21687;48.900;9.188;2024-02-16T01:46:51;8.53;;;4.77;;
35578;SDS011;21687;48.900;9.188;2024-02-16T01:49:17;8.37;;;5.40;;
35578;SDS011;21687;48.900;9.188;2024-02-16T01:51:44;6.03;;;4.60;;
35578;SDS011;21687;48.900;9.188;2024-02-16T01:54:11;6.70;;;5.27;;
35578;SDS011;21687;48.900;9.188;2024-02-16T01:56:38;6.47;;;5.40;;
35578;SDS011;21687;48.900;9.188;2024-02-16T01:59:05;8.17;;;5.60;;
35578;SDS011;21687;48.900;9.188;2024-02-16T02:01:32;6.87;;;5.30;;
35578;SDS011;21687;48.900;9.188;2024-02-16T02:03:58;9.43;;;5.20;;
35578;SDS011;21687;48.900;9.188;2024-02-16T02:06:25;6.67;;;5.40;;
35578;SDS011;21687;48.900;9.188;2024-02-16T02:08:52;11.37;;;5.03;;
35578;SDS011;21687;48.900;9.188;2024-02-16T02:11:18;7.20;;;4.97;;
35578;SDS011;21687;48.900;9.188;2024-02-16T02:13:45;6.33;;;5.13;;
35578;SDS011;21687;48.900;9.188;2024-02-16T02:16:11;8.17;;;4.70;;
35578;SDS011;21687;48.900;9.188;2024-02-16T02:18:38;7.37;;;5.30;;
35578;SDS011;21687;48.900;9.188;2024-02-16T02:21:06;6.90;;;4.73;;
35578;SDS011;21687;48.900;9.188;2024-02-16T02:23:32;8.30;;;4.93;;
35578;SDS011;21687;48.900;9.188;2024-02-16T02:25:59;8.23;;;4.67;;
35578;SDS011;21687;48.900;9.188;2024-02-16T02:28:25;6.73;;;4.60;;
35578;SDS011;21687;48.900;9.188;2024-02-16T02:30:52;6.00;;;4.30;;
35578;SDS011;21687;48.900;9.188;2024-02-16T02:33:18;8.47;;;4.60;;
35578;SDS011;21687;48.900;9.188;2024-02-16T02:35:46;5.57;;;4.80;;
35578;SDS011;21687;48.900;9.188;2024-02-16T02:38:12;5.43;;;4.10;;
35578;SDS011;21687;48.900;9.188;2024-02-16T02:40:39;5.93;;;4.23;;
35578;SDS011;21687;48.900;9.188;2024-02-16T02:43:05;5.57;;;4.17;;
35578;SDS011;21687;48.900;9.188;2024-02-16T02:45:32;6.60;;;4.63;;
35578;SDS011;21687;48.900;9.188;2024-02-16T02:47:58;5.93;;;4.80;;
35578;SDS011;21687;48.900;9.188;2024-02-16T02:50:25;5.40;;;4.37;;
35578;SDS011;21687;48.900;9.188;2024-02-16T02:52:52;5.37;;;4.23;;
35578;SDS011;21687;48.900;9.188;2024-02-16T02:55:18;5.70;;;3.83;;
35578;SDS011;21687;48.900;9.188;2024-02-16T02:57:44;5.17;;;4.27;;
35578;SDS011;21687;48.900;9.188;2024-02-16T03:00:10;5.37;;;4.10;;
35578;SDS011;21687;48.900;9.188;2024-02-16T03:02:37;4.80;;;4.10;;
35578;SDS011;21687;48.900;9.188;2024-02-16T03:05:05;5.77;;;4.03;;
35578;SDS011;21687;48.900;9.188;2024-02-16T03:07:34;5.03;;;4.03;;
35578;SDS011;21687;48.900;9.188;2024-02-16T03:10:02;6.97;;;4.30;;
35578;SDS011;21687;48.900;9.188;2024-02-16T03:12:32;4.10;;;3.60;;
35578;SDS011;21687;48.900;9.188;2024-02-16T03:14:58;6.07;;;4.00;;
35578;SDS011;21687;48.900;9.188;2024-02-16T03:17:25;5.13;;;4.13;;
35578;SDS011;21687;48.900;9.188;2024-02-16T03:19:51;3.87;;;3.53;;
35578;SDS011;21687;48.900;9.188;2024-02-16T03:22:17;5.07;;;3.23;;
35578;SDS011;21687;48.900;9.188;2024-02-16T03:24:43;5.00;;;3.73;;
35578;SDS011;21687;48.900;9.188;2024-02-16T03:27:10;5.40;;;3.93;;
35578;SDS011;21687;48.900;9.188;2024-02-16T03:29:37;4.00;;;3.60;;
35578;SDS011;21687;48.900;9.188;2024-02-16T03:32:03;6.90;;;3.60;;
35578;SDS011;21687;48.900;9.188;2024-02-16T03:34:30;7.87;;;4.13;;
35578;SDS011;21687;48.900;9.188;2024-02-16T03:36:56;6.17;;;3.80;;
35578;SDS011;21687;48.900;9.188;2024-02-16T03:39:24;3.90;;;3.33;;
35578;SDS011;21687;48.900;9.188;2024-02-16T03:41:50;4.10;;;3.57;;
35578;SDS011;21687;48.900;9.188;2024-02-16T03:44:16;8.03;;;3.67;;
35578;SDS011;21687;48.900;9.188;2024-02-16T03:46:42;5.50;;;4.07;;
35578;SDS011;21687;48.900;9.188;2024-02-16T03:49:09;4.80;;;3.90;;
35578;SDS011;21687;48.900;9.188;2024-02-16T03:51:35;8.20;;;4.70;;
35578;SDS011;21687;48.900;9.188;2024-02-16T03:54:02;5.97;;;4.37;;
35578;SDS011;21687;48.900;9.188;2024-02-16T03:56:29;5.07;;;4.37;;
35578;SDS011;21687;48.900;9.188;2024-02-16T03:58:56;7.57;;;4.20;;
35578;SDS011;21687;48.900;9.188;2024-02-16T04:01:22;6.50;;;4.00;;
35578;SDS011;21687;48.900;9.188;2024-02-16T04:03:49;6.63;;;4.03;;
35578;SDS011;21687;48.900;9.188;2024-02-16T04:06:17;9.50;;;4.60;;
35578;SDS011;21687;48.900;9.188;2024-02-16T04:08:43;5.77;;;4.17;;
35578;SDS011;21687;48.900;9.188;2024-02-16T04:11:13;6.47;;;4.20;;
35578;SDS011;21687;48.900;9.188;2024-02-16T04:13:40;4.63;;;4.17;;
35578;SDS011;21687;48.900;9.188;2024-02-16T04:16:06;4.30;;;3.77;;
35578;SDS011;21687;48.900;9.188;2024-02-16T04:18:33;5.33;;;4.13;;
35578;SDS011;21687;48.900;9.188;2024-02-16T04:20:59;4.40;;;3.97;;
35578;SDS011;21687;48.900;9.188;2024-02-16T04:23:26;6.43;;;4.47;;
35578;SDS011;21687;48.900;9.188;2024-02-16T04:25:54;4.70;;;3.60;;
35578;SDS011;21687;48.900;9.188;2024-02-16T04:28:21;4.67;;;3.73;;
35578;SDS011;21687;48.900;9.188;2024-02-16T04:30:47;6.33;;;4.27;;
35578;SDS011;21687;48.900;9.188;2024-02-16T04:33:14;6.53;;;4.33;;
35578;SDS011;21687;48.900;9.188;2024-02-16T04:35:40;5.73;;;3.73;;
35578;SDS011;21687;48.900;9.188;2024-02-16T04:38:06;7.90;;;4.17;;
35578;SDS011;21687;48.900;9.188;2024-02-16T04:40:33;6.53;;;4.10;;
35578;SDS011;21687;48.900;9.188;2024-02-16T04:43:02;4.40;;;3.63;;
35578;SDS011;21687;48.900;9.188;2024-02-16T04:45:29;8.57;;;3.73;;
35578;SDS011;21687;48.900;9.188;2024-02-16T04:47:55;5.63;;;3.57;;
35578;SDS011;21687;48.900;9.188;2024-02-16T04:50:21;4.10;;;3.40;;
35578;SDS011;21687;48.900;9.188;2024-02-16T04:52:48;4.27;;;3.23;;
35578;SDS011;21687;48.900;9.188;2024-02-16T04:55:16;5.07;;;3.60;;
35578;SDS011;21687;48.900;9.188;2024-02-16T04:57:42;5.67;;;3.20;;
35578;SDS011;21687;48.900;9.188;2024-02-16T05:00:08;6.33;;;3.23;;
35578;SDS011;21687;48.900;9.188;2024-02-16T05:02:35;4.37;;;3.20;;
35578;SDS011;21687;48.900;9.188;2024-02-16T05:05:02;3.80;;;3.00;;
35578;SDS011;21687;48.900;9.188;2024-02-16T05:07:28;5.03;;;3.40;;
35578;SDS011;21687;48.900;9.188;2024-02-16T05:09:56;3.97;;;3.20;;
35578;SDS011;21687;48.900;9.188;2024-02-16T05:12:23;4.23;;;3.67;;
35578;SDS011;21687;48.900;9.188;2024-02-16T05:14:51;5.90;;;3.60;;
35578;SDS011;21687;48.900;9.188;2024-02-16T05:17:18;5.33;;;3.80;;
35578;SDS011;21687;48.900;9.188;2024-02-16T05:19:47;5.27;;;3.97;;
35578;SDS011;21687;48.900;9.188;2024-02-16T05:22:14;3.53;;;3.20;;
35578;SDS011;21687;48.900;9.188;2024-02-16T05:24:43;6.57;;;3.43;;
35578;SDS011;21687;48.900;9.188;2024-02-16T05:27:10;8.17;;;3.50;;
35578;SDS011;21687;48.900;9.188;2024-02-16T05:29:36;3.90;;;3.50;;
35578;SDS011;21687;48.900;9.188;2024-02-16T05:32:02;5.97;;;4.20;;
35578;SDS011;21687;48.900;9.188;2024-02-16T05:34:29;5.03;;;3.83;;
35578;SDS011;21687;48.900;9.188;2024-02-16T05:37:05;7.10;;;4.00;;
35578;SDS011;21687;48.900;9.188;2024-02-16T05:39:32;7.17;;;3.83;;
35578;SDS011;21687;48.900;9.188;2024-02-16T05:42:08;7.13;;;3.80;;
35578;SDS011;21687;48.900;9.188;2024-02-16T05:44:34;8.87;;;4.10;;
35578;SDS011;21687;48.900;9.188;2024-02-16T05:47:02;4.80;;;3.97;;
35578;SDS011;21687;48.900;9.188;2024-02-16T05:49:28;4.60;;;4.00;;
35578;SDS011;21687;48.900;9.188;2024-02-16T05:51:55;9.93;;;4.50;;
35578;SDS011;21687;48.900;9.188;2024-02-16T05:54:40;6.40;;;4.43;;
35578;SDS011;21687;48.900;9.188;2024-02-16T05:57:06;4.97;;;4.07;;
35578;SDS011;21687;48.900;9.188;2024-02-16T05:59:34;7.30;;;4.30;;
35578;SDS011;21687;48.900;9.188;2024-02-16T06:02:00;8.37;;;4.17;;
35578;SDS011;21687;48.900;9.188;2024-02-16T06:04:26;7.43;;;4.50;;
35578;SDS011;21687;48.900;9.188;2024-02-16T06:06:53;5.03;;;4.03;;
35578;SDS011;21687;48.900;9.188;2024-02-16T06:09:19;6.77;;;4.53;;
35578;SDS011;21687;48.900;9.188;2024-02-16T06:11:45;6.90;;;4.53;;
35578;SDS011;21687;48.900;9.188;2024-02-16T06:14:13;8.07;;;4.73;;
35578;SDS011;21687;48.900;9.188;2024-02-16T06:16:40;7.30;;;4.50;;
35578;SDS011;21687;48.900;9.188;2024-02-16T06:19:11;9.83;;;6.00;;
35578;SDS011;21687;48.900;9.188;2024-02-16T06:21:37;7.80;;;5.50;;
35578;SDS011;21687;48.900;9.188;2024-02-16T06:24:04;8.33;;;4.70;;
35578;SDS011;21687;48.900;9.188;2024-02-16T06:26:30;5.60;;;5.00;;
35578;SDS011;21687;48.900;9.188;2024-02-16T06:28:56;7.47;;;5.07;;
35578;SDS011;21687;48.900;9.188;2024-02-16T06:31:23;5.83;;;4.60;;
35578;SDS011;21687;48.900;9.188;2024-02-16T06:33:50;9.03;;;5.13;;
35578;SDS011;21687;48.900;9.188;2024-02-16T06:36:16;10.10;;;6.03;;
35578;SDS011;21687;48.900;9.188;2024-02-16T06:38:43;8.57;;;5.33;;
35578;SDS011;21687;48.900;9.188;2024-02-16T06:41:09;9.50;;;5.37;;
35578;SDS011;21687;48.900;9.188;2024-02-16T06:43:37;9.13;;;5.23;;
35578;SDS011;21687;48.900;9.188;2024-02-16T06:46:03;8.60;;;5.40;;
35578;SDS011;21687;48.900;9.188;2024-02-16T06:48:30;9.70;;;5.60;;
35578;SDS011;21687;48.900;9.188;2024-02-16T06:50:56;10.00;;;4.77;;
35578;SDS011;21687;48.900;9.188;2024-02-16T06:53:22;6.70;;;4.73;;
35578;SDS011;21687;48.900;9.188;2024-02-16T06:55:49;8.83;;;4.40;;
35578;SDS011;21687;48.900;9.188;2024-02-16T06:58:16;10.03;;;5.20;;
35578;SDS011;21687;48.900;9.188;2024-02-16T07:00:42;11.23;;;5.20;;
35578;SDS011;21687;48.900;9.188;2024-02-16T07:03:09;7.37;;;4.80;;
35578;SDS011;21687;48.900;9.188;2024-02-16T07:05:35;10.13;;;4.77;;
35578;SDS011;21687;48.900;9.188;2024-02-16T07:08:02;8.83;;;5.10;;
35578;SDS011;21687;48.900;9.188;2024-02-16T07:10:31;7.17;;;4.97;;
35578;SDS011;21687;48.900;9.188;2024-02-16T07:12:58;7.23;;;4.30;;
35578;SDS011;21687;48.900;9.188;2024-02-16T07:15:25;6.60;;;4.73;;
35578;SDS011;21687;48.900;9.188;2024-02-16T07:17:53;8.47;;;4.63;;
35578;SDS011;21687;48.900;9.188;2024-02-16T07:20:19;8.00;;;5.23;;
35578;SDS011;21687;48.900;9.188;2024-02-16T07:22:46;7.37;;;4.80;;
35578;SDS011;21687;48.900;9.188;2024-02-16T07:25:12;6.43;;;4.60;;
35578;SDS011;21687;48.900;9.188;2024-02-16T07:27:39;5.87;;;4.30;;
35578;SDS011;21687;48.900;9.188;2024-02-16T07:30:06;4.90;;;4.40;;
35578;SDS011;21687;48.900;9.188;2024-02-16T07:32:35;7.40;;;4.93;;
35578;SDS011;21687;48.900;9.188;2024-02-16T07:35:02;5.90;;;4.87;;
35578;SDS011;21687;48.900;9.188;2024-02-16T07:37:28;8.17;;;4.97;;
35578;SDS011;21687;48.900;9.188;2024-02-16T07:39:55;6.43;;;4.53;;
35578;SDS011;21687;48.900;9.188;2024-02-16T07:42:22;7.87;;;4.53;;
35578;SDS011;21687;48.900;9.188;2024-02-16T07:44:48;7.20;;;4.80;;
35578;SDS011;21687;48.900;9.188;2024-02-16T07:47:15;6.83;;;4.70;;
35578;SDS011;21687;48.900;9.188;2024-02-16T07:49:42;5.80;;;4.70;;
35578;SDS011;21687;48.900;9.188;2024-02-16T07:52:09;5.33;;;4.00;;
35578;SDS011;21687;48.900;9.188;2024-02-16T07:54:35;6.37;;;4.80;;
35578;SDS011;21687;48.900;9.188;2024-02-16T07:57:02;7.87;;;5.07;;
35578;SDS011;21687;48.900;9.188;2024-02-16T07:59:29;7.00;;;4.70;;
35578;SDS011;21687;48.900;9.188;2024-02-16T08:01:56;10.87;;;4.67;;
35578;SDS011;21687;48.900;9.188;2024-02-16T08:04:22;7.03;;;5.13;;
35578;SDS011;21687;48.900;9.188;2024-02-16T08:06:48;5.93;;;4.53;;
35578;SDS011;21687;48.900;9.188;2024-02-16T08:09:15;6.37;;;4.97;;
35578;SDS011;21687;48.900;9.188;2024-02-16T08:11:41;6.53;;;4.43;;
35578;SDS011;21687;48.900;9.188;2024-02-16T08:14:07;6.37;;;4.77;;
35578;SDS011;21687;48.900;9.188;2024-02-16T08:16:34;9.87;;;4.70;;
35578;SDS011;21687;48.900;9.188;2024-02-16T08:19:00;16.17;;;4.77;;
35578;SDS011;21687;48.900;9.188;2024-02-16T08:21:26;5.47;;;4.37;;
35578;SDS011;21687;48.900;9.188;2024-02-16T08:23:53;8.07;;;4.40;;
35578;SDS011;21687;48.900;9.188;2024-02-16T08:26:19;7.23;;;4.90;;
35578;SDS011;21687;48.900;9.188;2024-02-16T08:28:47;7.80;;;4.83;;
35578;SDS011;21687;48.900;9.188;2024-02-16T08:31:17;6.77;;;4.40;;
35578;SDS011;21687;48.900;9.188;2024-02-16T08:33:44;8.07;;;4.53;;
35578;SDS011;21687;48.900;9.188;2024-02-16T08:36:11;6.20;;;4.20;;
35578;SDS011;21687;48.900;9.188;2024-02-16T08:38:39;6.97;;;4.47;;
35578;SDS011;21687;48.900;9.188;2024-02-16T08:41:05;6.53;;;4.77;;
35578;SDS011;21687;48.900;9.188;2024-02-16T08:43:31;6.87;;;3.83;;
35578;SDS011;21687;48.900;9.188;2024-02-16T08:45:58;5.67;;;4.17;;
35578;SDS011;21687;48.900;9.188;2024-02-16T08:48:24;5.90;;;4.27;;
35578;SDS011;21687;48.900;9.188;2024-02-16T08:50:50;6.97;;;3.83;;
35578;SDS011;21687;48.900;9.188;2024-02-16T08:53:17;7.27;;;4.03;;
35578;SDS011;21687;48.900;9.188;2024-02-16T08:55:43;5.50;;;3.83;;
35578;SDS011;21687;48.900;9.188;2024-02-16T08:58:10;5.63;;;3.83;;
35578;SDS011;21687;48.900;9.188;2024-02-16T09:00:37;5.80;;;3.97;;
35578;SDS011;21687;48.900;9.188;2024-02-16T09:03:04;7.57;;;4.33;;
35578;SDS011;21687;48.900;9.188;2024-02-16T09:05:31;6.87;;;3.40;;
35578;SDS011;21687;48.900;9.188;2024-02-16T09:07:58;5.43;;;3.70;;
35578;SDS011;21687;48.900;9.188;2024-02-16T09:10:24;8.07;;;3.50;;
35578;SDS011;21687;48.900;9.188;2024-02-16T09:12:51;4.53;;;3.57;;
35578;SDS011;21687;48.900;9.188;2024-02-16T09:15:17;10.17;;;3.90;;
35578;SDS011;21687;48.900;9.188;2024-02-16T09:17:43;6.07;;;4.03;;
35578;SDS011;21687;48.900;9.188;2024-02-16T09:20:10;7.83;;;3.87;;
35578;SDS011;21687;48.900;9.188;2024-02-16T09:22:36;7.60;;;4.40;;
35578;SDS011;21687;48.900;9.188;2024-02-16T09:25:06;6.47;;;4.00;;
35578;SDS011;21687;48.900;9.188;2024-02-16T09:27:32;5.47;;;4.03;;
35578;SDS011;21687;48.900;9.188;2024-02-16T09:29:59;5.33;;;3.47;;
35578;SDS011;21687;48.900;9.188;2024-02-16T09:32:25;6.90;;;4.07;;
35578;SDS011;21687;48.900;9.188;2024-02-16T09:34:51;6.40;;;4.03;;
35578;SDS011;21687;48.900;9.188;2024-02-16T09:37:19;5.87;;;4.00;;
35578;SDS011;21687;48.900;9.188;2024-02-16T09:39:45;4.30;;;3.70;;
35578;SDS011;21687;48.900;9.188;2024-02-16T09:42:12;7.97;;;3.80;;
35578;SDS011;21687;48.900;9.188;2024-02-16T09:44:39;5.67;;;3.93;;
35578;SDS011;21687;48.900;9.188;2024-02-16T09:47:06;5.63;;;3.77;;
35578;SDS011;21687;48.900;9.188;2024-02-16T09:49:37;5.10;;;4.00;;
35578;SDS011;21687;48.900;9.188;2024-02-16T09:52:03;6.63;;;3.60;;
35578;SDS011;21687;48.900;9.188;2024-02-16T09:54:33;4.37;;;3.40;;
35578;SDS011;21687;48.900;9.188;2024-02-16T09:56:59;6.63;;;3.97;;
35578;SDS011;21687;48.900;9.188;2024-02-16T09:59:26;5.43;;;3.40;;
35578;SDS011;21687;48.900;9.188;2024-02-16T10:02:02;6.40;;;3.57;;
35578;SDS011;21687;48.900;9.188;2024-02-16T10:04:29;10.10;;;4.00;;
35578;SDS011;21687;48.900;9.188;2024-02-16T10:06:56;6.30;;;3.60;;
35578;SDS011;21687;48.900;9.188;2024-02-16T10:09:27;4.43;;;3.17;;
35578;SDS011;21687;48.900;9.188;2024-02-16T10:12:04;5.13;;;3.27;;
35578;SDS011;21687;48.900;9.188;2024-02-16T10:14:31;8.60;;;3.50;;
35578;SDS011;21687;48.900;9.188;2024-02-16T10:17:05;5.93;;;3.37;;
35578;SDS011;21687;48.900;9.188;2024-02-16T10:19:32;5.40;;;3.63;;
35578;SDS011;21687;48.900;9.188;2024-02-16T10:22:08;5.87;;;3.17;;
35578;SDS011;21687;48.900;9.188;2024-02-16T10:24:35;3.93;;;3.17;;
35578;SDS011;21687;48.900;9.188;2024-02-16T10:27:13;4.17;;;3.03;;
35578;SDS011;21687;48.900;9.188;2024-02-16T10:29:42;4.57;;;2.90;;
35578;SDS011;21687;48.900;9.188;2024-02-16T10:32:10;4.10;;;3.40;;
35578;SDS011;21687;48.900;9.188;2024-02-16T10:34:37;5.27;;;2.90;;
35578;SDS011;21687;48.900;9.188;2024-02-16T10:37:05;4.13;;;2.77;;
35578;SDS011;21687;48.900;9.188;2024-02-16T10:39:33;3.47;;;2.80;;
35578;SDS011;21687;48.900;9.188;2024-02-16T10:42:03;8.27;;;2.90;;
35578;SDS011;21687;48.900;9.188;2024-02-16T10:44:32;4.57;;;2.70;;
35578;SDS011;21687;48.900;9.188;2024-02-16T10:47:00;4.97;;;3.13;;
35578;SDS011;21687;48.900;9.188;2024-02-16T10:49:26;5.33;;;2.87;;
35578;SDS011;21687;48.900;9.188;2024-02-16T10:51:54;3.47;;;2.67;;
35578;SDS011;21687;48.900;9.188;2024-02-16T10:54:27;4.83;;;3.00;;
35578;SDS011;21687;48.900;9.188;2024-02-16T10:57:08;8.60;;;2.63;;
35578;SDS011;21687;48.900;9.188;2024-02-16T10:59:41;2.97;;;2.37;;
35578;SDS011;21687;48.900;9.188;2024-02-16T11:02:09;4.67;;;2.80;;
35578;SDS011;21687;48.900;9.188;2024-02-16T11:04:36;5.10;;;3.00;;
35578;SDS011;21687;48.900;9.188;2024-02-16T11:07:11;6.37;;;3.37;;
35578;SDS011;21687;48.900;9.188;2024-02-16T11:09:41;4.47;;;3.27;;
35578;SDS011;21687;48.900;9.188;2024-02-16T11:12:11;4.03;;;3.50;;
35578;SDS011;21687;48.900;9.188;2024-02-16T11:14:40;7.40;;;3.00;;
35578;SDS011;21687;48.900;9.188;2024-02-16T11:17:08;5.27;;;2.40;;
35578;SDS011;21687;48.900;9.188;2024-02-16T11:19:35;7.80;;;3.70;;
35578;SDS011;21687;48.900;9.188;2024-02-16T11:22:05;4.20;;;3.10;;
35578;SDS011;21687;48.900;9.188;2024-02-16T11:24:36;6.87;;;3.57;;
35578;SDS011;21687;48.900;9.188;2024-02-16T11:27:07;6.67;;;2.70;;
35578;SDS011;21687;48.900;9.188;2024-02-16T11:29:36;4.93;;;2.73;;
35578;SDS011;21687;48.900;9.188;2024-02-16T11:32:04;4.83;;;2.90;;
35578;SDS011;21687;48.900;9.188;2024-02-16T11:34:31;4.87;;;3.00;;
35578;SDS011;21687;48.900;9.188;2024-02-16T11:36:59;5.17;;;3.00;;
35578;SDS011;21687;48.900;9.188;2024-02-16T11:39:26;11.23;;;4.00;;
35578;SDS011;21687;48.900;9.188;2024-02-16T11:42:08;3.27;;;2.43;;
35578;SDS011;21687;48.900;9.188;2024-02-16T11:44:36;4.47;;;3.03;;
35578;SDS011;21687;48.900;9.188;2024-02-16T11:47:08;3.37;;;2.20;;
35578;SDS011;21687;48.900;9.188;2024-02-16T11:49:40;5.30;;;2.97;;
35578;SDS011;21687;48.900;9.188;2024-02-16T11:52:07;4.57;;;2.30;;
35578;SDS011;21687;48.900;9.188;2024-02-16T11:54:34;7.07;;;2.80;;
35578;SDS011;21687;48.900;9.188;2024-02-16T11:57:03;4.10;;;2.67;;
35578;SDS011;21687;48.900;9.188;2024-02-16T11:59:29;4.23;;;2.50;;
35578;SDS011;21687;48.900;9.188;2024-02-16T12:01:59;6.00;;;3.40;;
35578;SDS011;21687;48.900;9.188;2024-02-16T12:04:26;4.57;;;2.70;;
35578;SDS011;21687;48.900;9.188;2024-02-16T12:07:00;5.87;;;2.50;;
35578;SDS011;21687;48.900;9.188;2024-02-16T12:09:28;3.70;;;2.80;;
35578;SDS011;21687;48.900;9.188;2024-02-16T12:11:57;3.27;;;2.80;;
35578;SDS011;21687;48.900;9.188;2024-02-16T12:14:23;6.03;;;3.10;;
35578;SDS011;21687;48.900;9.188;2024-02-16T12:16:51;4.20;;;2.80;;
35578;SDS011;21687;48.900;9.188;2024-02-16T12:19:21;3.33;;;2.83;;
35578;SDS011;21687;48.900;9.188;2024-02-16T12:21:51;6.10;;;3.30;;
35578;SDS011;21687;48.900;9.188;2024-02-16T12:24:18;5.40;;;3.23;;
35578;SDS011;21687;48.900;9.188;2024-02-16T12:26:45;7.13;;;3.07;;
35578;SDS011;21687;48.900;9.188;2024-02-16T12:29:11;5.80;;;3.37;;
35578;SDS011;21687;48.900;9.188;2024-02-16T12:31:41;5.73;;;3.17;;
35578;SDS011;21687;48.900;9.188;2024-02-16T12:34:09;9.17;;;3.17;;
35578;SDS011;21687;48.900;9.188;2024-02-16T12:36:36;7.07;;;2.50;;
35578;SDS011;21687;48.900;9.188;2024-02-16T12:39:09;6.20;;;2.60;;
35578;SDS011;21687;48.900;9.188;2024-02-16T12:41:37;8.20;;;2.90;;
35578;SDS011;21687;48.900;9.188;2024-02-16T12:44:06;7.27;;;2.73;;
35578;SDS011;21687;48.900;9.188;2024-02-16T12:46:32;6.00;;;2.63;;
35578;SDS011;21687;48.900;9.188;2024-02-16T12:48:59;4.50;;;2.70;;
35578;SDS011;21687;48.900;9.188;2024-02-16T12:51:25;6.87;;;4.53;;
35578;SDS011;21687;48.900;9.188;2024-02-16T12:53:52;9.03;;;2.80;;
35578;SDS011;21687;48.900;9.188;2024-02-16T12:56:18;3.33;;;2.40;;
35578;SDS011;21687;48.900;9.188;2024-02-16T12:58:46;3.10;;;2.30;;
35578;SDS011;21687;48.900;9.188;2024-02-16T13:01:13;6.30;;;2.83;;
35578;SDS011;21687;48.900;9.188;2024-02-16T13:03:43;3.70;;;2.70;;
35578;SDS011;21687;48.900;9.188;2024-02-16T13:06:10;6.87;;;3.03;;
35578;SDS011;21687;48.900;9.188;2024-02-16T13:08:36;3.97;;;2.63;;
35578;SDS011;21687;48.900;9.188;2024-02-16T13:11:03;6.27;;;2.57;;
35578;SDS011;21687;48.900;9.188;2024-02-16T13:13:30;9.57;;;2.80;;
35578;SDS011;21687;48.900;9.188;2024-02-16T13:15:57;6.13;;;2.77;;
35578;SDS011;21687;48.900;9.188;2024-02-16T13:18:24;5.73;;;2.37;;
35578;SDS011;21687;48.900;9.188;2024-02-16T13:20:50;6.30;;;2.73;;
35578;SDS011;21687;48.900;9.188;2024-02-16T13:23:17;6.07;;;2.30;;
35578;SDS011;21687;48.900;9.188;2024-02-16T13:25:44;6.37;;;2.70;;
35578;SDS011;21687;48.900;9.188;2024-02-16T13:28:10;5.57;;;2.70;;
35578;SDS011;21687;48.900;9.188;2024-02-16T13:30:37;6.63;;;3.17;;
35578;SDS011;21687;48.900;9.188;2024-02-16T13:33:04;6.27;;;2.70;;
35578;SDS011;21687;48.900;9.188;2024-02-16T13:35:30;3.50;;;2.37;;
35578;SDS011;21687;48.900;9.188;2024-02-16T13:37:56;4.27;;;2.30;;
35578;SDS011;21687;48.900;9.188;2024-02-16T13:40:23;6.20;;;2.93;;
35578;SDS011;21687;48.900;9.188;2024-02-16T13:42:49;8.87;;;2.40;;
35578;SDS011;21687;48.900;9.188;2024-02-16T13:45:16;12.60;;;3.47;;
35578;SDS011;21687;48.900;9.188;2024-02-16T13:47:42;6.77;;;3.27;;
35578;SDS011;21687;48.900;9.188;2024-02-16T13:50:08;3.73;;;2.30;;
35578;SDS011;21687;48.900;9.188;2024-02-16T13:52:35;7.67;;;2.53;;
35578;SDS011;21687;48.900;9.188;2024-02-16T13:55:01;5.70;;;2.70;;
35578;SDS011;21687;48.900;9.188;2024-02-16T13:57:28;5.63;;;2.27;;
35578;SDS011;21687;48.900;9.188;2024-02-16T13:59:54;4.27;;;2.17;;
35578;SDS011;21687;48.900;9.188;2024-02-16T14:02:20;6.47;;;2.47;;
35578;SDS011;21687;48.900;9.188;2024-02-16T14:04:47;11.43;;;3.07;;
35578;SDS011;21687;48.900;9.188;2024-02-16T14:07:14;6.97;;;3.07;;
35578;SDS011;21687;48.900;9.188;2024-02-16T14:09:41;6.20;;;2.50;;
35578;SDS011;21687;48.900;9.188;2024-02-16T14:12:07;4.83;;;2.43;;
35578;SDS011;21687;48.900;9.188;2024-02-16T14:14:33;6.73;;;2.40;;
35578;SDS011;21687;48.900;9.188;2024-02-16T14:17:00;4.40;;;2.27;;
35578;SDS011;21687;48.900;9.188;2024-02-16T14:19:26;9.47;;;2.80;;
35578;SDS011;21687;48.900;9.188;2024-02-16T14:21:52;5.47;;;2.60;;
35578;SDS011;21687;48.900;9.188;2024-02-16T14:24:19;7.77;;;2.93;;
35578;SDS011;21687;48.900;9.188;2024-02-16T14:26:47;6.43;;;2.50;;
35578;SDS011;21687;48.900;9.188;2024-02-16T14:29:13;8.53;;;3.20;;
35578;SDS011;21687;48.900;9.188;2024-02-16T14:31:41;7.57;;;2.67;;
35578;SDS011;21687;48.900;9.188;2024-02-16T14:34:08;8.20;;;2.70;;
35578;SDS011;21687;48.900;9.188;2024-02-16T14:36:34;7.03;;;2.43;;
35578;SDS011;21687;48.900;9.188;2024-02-16T14:39:01;6.93;;;2.53;;
35578;SDS011;21687;48.900;9.188;2024-02-16T14:41:28;4.07;;;2.23;;
35578;SDS011;21687;48.900;9.188;2024-02-16T14:43:55;7.80;;;2.40;;
35578;SDS011;21687;48.900;9.188;2024-02-16T14:46:27;6.43;;;2.60;;
35578;SDS011;21687;48.900;9.188;2024-02-16T14:48:53;5.60;;;2.50;;